Accueil
METAR-TAF:

METAR-TAF

Aéroports :

Aéroport international de Hanovre Langenhagen

Hanovre, Allemagne

latitude: 52-28N, longitude: 009-41E, altitude: 56 m

Observation

Le bulletin a été fait il y a 23 minutes, à 18:50 UTC
Vent 6 kt de nord-ouest
Température 19°C
Humidité 60%
Pression 1019 hPa
Visibilité 10 km ou plus
pas de nuages en-dessous de 1500 mètres et pas de cumulonimbus.

METAR: EDDV 151850Z 32006KT CAVOK 19/11 Q1019 NOSIG

Heure: 21:13 (19:13 UTC)

Prévision

Le bulletin a été fait il y a 2 heures et 13 minutes, à 17:00 UTC
Prévision valable du 15 à 18 UTC au 16 à 18 UTC
Vent 6 kt de nord/nord-ouest
Visibilité 10 km ou plus
pas de nuages en-dessous de 1500 mètres et pas de cumulonimbus.
Evoluant progressivement
du 15 à 20 UTC au 15 à 23 UTC
Vent 4 kt de est/nord-est
Evoluant progressivement
du 16 à 06 UTC au 16 à 09 UTC
Vent 8 kt de sud-est

TAF: EDDV 151700Z 1518/1618 34006KT CAVOK BECMG 1520/1523 06004KT BECMG 1606/1609 13008KT

Observations et prévisions météorologiques de plus de 4000 aéroports (messages METAR et TAF).

Les stations disponibles sont représentées par des disques jaunes et rouges sur la carte.

Passer la souris dessus pour voir le nom de la station.

Cliquer dessus pour voir les observations et prévisions météorologiques.

Pour changer de carte: cliquez sur les boutons verts avec une croix noire pour zoomer, sur le bouton vert avec un tiret pour effectuer un zoom arrière, ou sur les flèches vertes pour les cartes adjacentes.


METAR-TAF: